Terminal Aerodrome Forecast
Issued by NWS

Home | Current Version | Previous Version | Text Only | Print | Product List | Glossary Off
Versions: 1 2 3 4 5 6 7 8 9 10 11 12 13 14 15 16 17 18 19 20 21 22 23

000
FTUS43 KMPX 232321
TAFRWF
TAF
KRWF 232321Z 2400/2424 20007KT P6SM BKN015
     FM240500 VRB03KT 3SM BR SCT015
     FM240900 VRB03KT 1/4SM FZFG VV002
     FM241500 12007KT 3SM BR OVC007
     FM242000 10008KT 1/2SM SN FG OVC003=

USA.gov is the U.S. government's official web portal to all federal, state and local government web resources and services.